Goldboro, Canada
Current Conditions -  °F | °C
As of 8:00 AM on Monday 22 Dec 2014 (Local Time) from CYPD Reporting Station
Overcast Overcast  
Wind Chill: -7°   Ceiling: 1700
Heat Index: -3°   Visibility: 9mi
Dew Point: -6°   Wind: 7mph
Humidity: 80%   Direction: 20°NNE
Pressure: 30.42"   Gusts: NA
Location:  45.18°N, 61.65°W
Report Text: CYPD 221200Z AUTO 02006KT 320V060 9SM OVC017 M03/M06 A3042 RMK SLP309
Loading
Personal Weather Stations






























Interactive Weather Map New forecast layout! Learn more

10-Day Weather Forecast

Advertisements
Track Severe Weather on mobile